Time;durP1;ratioP1;P1;durP2;ratioP2;P2;SDS_P1;SDS_P2;PMS_P1;PMS_P2;Temp;Humidity;BMP_temperature;BMP_pressure;BME280_temperature;BME280_humidity;BME280_pressure;Samples;Min_cycle;Max_cycle;Signal;HPM_P1;HPM_P2
2022/09/30 00:01:11;;;;;;;;;;;8.30;99.90;;;;;;6250530;22;19923;-73
2022/09/30 00:03:37;;;;;;;;;;;8.10;99.90;;;;;;6225513;22;19916;-72
2022/09/30 00:06:04;;;;;;;;;;;8.10;99.90;;;;;;6276181;22;19922;-72
2022/09/30 00:08:30;;;;;;;;;;;8.10;99.90;;;;;;6251010;22;19915;-74
2022/09/30 00:11:18;;;;;;;;;;;8.10;99.90;;;;;;6250366;22;19980;-72
2022/09/30 00:13:46;;;;;;;;;;;8.00;99.90;;;;;;6231373;22;19915;-73
2022/09/30 00:16:12;;;;;;;;;;;7.90;99.90;;;;;;6276489;22;19922;-73
2022/09/30 00:18:38;;;;;;;;;;;7.90;99.90;;;;;;6276594;22;20388;-76
2022/09/30 00:21:04;;;;;;;;;;;8.00;99.90;;;;;;6276102;22;19916;-74
2022/09/30 00:23:30;;;;;;;;;;;7.80;99.90;;;;;;6276483;22;20318;-75
2022/09/30 00:26:00;;;;;;;;;;;7.80;99.90;;;;;;6276309;22;19923;-73
2022/09/30 00:28:26;;;;;;;;;;;7.80;99.90;;;;;;6251002;22;19915;-73
2022/09/30 00:30:52;;;;;;;;;;;7.70;99.90;;;;;;6250424;22;19915;-74
2022/09/30 00:33:17;;;;;;;;;;;7.70;99.90;;;;;;6250431;22;19915;-75
2022/09/30 00:35:46;;;;;;;;;;;7.70;99.90;;;;;;6276455;22;20226;-73
2022/09/30 00:38:11;;;;;;;;;;;7.80;99.90;;;;;;6275883;22;19915;-73
2022/09/30 00:40:37;;;;;;;;;;;7.70;99.90;;;;;;6250616;22;19923;-74
2022/09/30 00:43:10;;;;;;;;;;;7.50;99.90;;;;;;6250627;22;19922;-72
2022/09/30 00:45:35;;;;;;;;;;;7.70;99.90;;;;;;6250155;22;19994;-73
2022/09/30 00:48:05;;;;;;;;;;;7.50;99.90;;;;;;6277543;22;19962;-73
2022/09/30 00:50:33;;;;;;;;;;;7.50;99.90;;;;;;6276433;22;20280;-73
2022/09/30 00:52:59;;;;;;;;;;;7.40;99.90;;;;;;6275924;22;19994;-72
2022/09/30 00:55:24;;;;;;;;;;;7.30;99.90;;;;;;6276190;22;20335;-74
2022/09/30 00:57:50;;;;;;;;;;;7.30;99.90;;;;;;6277690;22;20607;-73
2022/09/30 01:00:16;;;;;;;;;;;7.20;99.90;;;;;;6250643;22;19919;-73
2022/09/30 01:02:41;;;;;;;;;;;7.30;99.90;;;;;;6249738;22;20288;-73
2022/09/30 01:05:10;;;;;;;;;;;7.30;99.90;;;;;;6249832;22;19919;-73
2022/09/30 01:07:36;;;;;;;;;;;7.20;99.90;;;;;;6249428;22;19964;-73
2022/09/30 01:10:02;;;;;;;;;;;7.20;99.90;;;;;;6250038;22;19949;-73
2022/09/30 01:12:27;;;;;;;;;;;7.20;99.90;;;;;;6250297;22;19964;-76
2022/09/30 01:14:55;;;;;;;;;;;7.20;99.90;;;;;;6250420;22;20265;-73
2022/09/30 01:17:20;;;;;;;;;;;7.20;99.90;;;;;;6275851;22;19919;-73
2022/09/30 01:19:57;;;;;;;;;;;7.20;99.90;;;;;;6276388;22;19965;-73
2022/09/30 01:22:41;;;;;;;;;;;7.10;99.90;;;;;;6276118;22;19919;-72
2022/09/30 01:25:13;;;;;;;;;;;7.10;99.90;;;;;;6275994;22;19950;-74
2022/09/30 01:27:38;;;;;;;;;;;7.10;99.90;;;;;;6275814;22;19915;-73
2022/09/30 01:30:16;;;;;;;;;;;7.10;99.90;;;;;;6275141;22;20044;-72
2022/09/30 01:32:53;;;;;;;;;;;7.10;99.90;;;;;;6275923;22;19915;-72
2022/09/30 01:35:22;;;;;;;;;;;7.10;99.90;;;;;;6275877;22;19926;-74
2022/09/30 01:37:48;;;;;;;;;;;7.00;99.90;;;;;;6275762;22;20045;-72
2022/09/30 01:40:22;;;;;;;;;;;7.00;99.90;;;;;;6250197;22;19954;-71
2022/09/30 01:42:53;;;;;;;;;;;6.90;99.90;;;;;;6275639;22;19922;-73
2022/09/30 01:45:24;;;;;;;;;;;7.00;99.90;;;;;;6250379;22;20272;-75
2022/09/30 01:47:57;;;;;;;;;;;6.90;99.90;;;;;;6250061;22;19938;-73
2022/09/30 01:50:35;;;;;;;;;;;6.90;99.90;;;;;;6275746;22;19954;-73
2022/09/30 01:53:05;;;;;;;;;;;6.90;99.90;;;;;;6275254;22;19916;-72
2022/09/30 01:55:33;;;;;;;;;;;7.00;99.90;;;;;;6250023;22;19962;-75
2022/09/30 01:58:12;;;;;;;;;;;6.80;99.90;;;;;;6275720;22;19915;-73
2022/09/30 02:00:40;;;;;;;;;;;6.80;99.90;;;;;;6275670;22;20252;-73
2022/09/30 02:03:09;;;;;;;;;;;7.10;99.90;;;;;;6275500;22;19965;-74
2022/09/30 02:05:50;;;;;;;;;;;6.80;99.90;;;;;;6249873;22;19919;-73
2022/09/30 02:08:22;;;;;;;;;;;6.70;99.90;;;;;;6250175;22;20202;-72
2022/09/30 02:10:52;;;;;;;;;;;6.80;99.90;;;;;;6250004;22;20211;-72
2022/09/30 02:13:23;;;;;;;;;;;6.80;99.90;;;;;;6275489;22;20335;-73
2022/09/30 02:15:53;;;;;;;;;;;6.90;99.90;;;;;;6275394;22;19916;-72
2022/09/30 02:18:30;;;;;;;;;;;7.00;99.90;;;;;;6275604;22;19947;-73
2022/09/30 02:20:59;;;;;;;;;;;7.00;99.90;;;;;;6275206;22;19915;-75
2022/09/30 02:23:26;;;;;;;;;;;7.30;99.90;;;;;;6274707;22;20000;-73
2022/09/30 02:26:04;;;;;;;;;;;7.10;99.90;;;;;;6274729;22;19915;-73
2022/09/30 02:28:30;;;;;;;;;;;7.10;99.90;;;;;;6274991;22;19938;-73
2022/09/30 02:30:58;;;;;;;;;;;7.10;99.90;;;;;;6275385;22;20314;-75
2022/09/30 02:33:30;;;;;;;;;;;7.10;99.90;;;;;;6249478;22;19915;-72
2022/09/30 02:35:58;;;;;;;;;;;7.10;99.90;;;;;;6275350;22;20233;-72
2022/09/30 02:38:25;;;;;;;;;;;7.10;99.90;;;;;;6275055;22;19919;-74
2022/09/30 02:40:55;;;;;;;;;;;7.10;99.90;;;;;;6277443;22;19926;-74
2022/09/30 02:43:21;;;;;;;;;;;7.10;99.90;;;;;;6277410;22;19998;-72
2022/09/30 02:45:49;;;;;;;;;;;7.20;99.90;;;;;;6257187;22;19916;-72
2022/09/30 02:48:34;;;;;;;;;;;7.10;99.90;;;;;;6278690;22;19951;-74
2022/09/30 02:51:05;;;;;;;;;;;7.10;99.90;;;;;;6249553;22;19994;-74
2022/09/30 02:53:39;;;;;;;;;;;7.20;99.90;;;;;;6249014;22;19919;-74
2022/09/30 02:56:20;;;;;;;;;;;7.10;99.90;;;;;;6275236;22;19915;-74
2022/09/30 02:58:46;;;;;;;;;;;7.10;99.90;;;;;;6275413;22;19915;-73
2022/09/30 03:01:13;;;;;;;;;;;7.40;99.90;;;;;;6249433;22;19916;-73
2022/09/30 03:03:40;;;;;;;;;;;7.10;99.90;;;;;;6249332;22;19915;-73
2022/09/30 03:06:06;;;;;;;;;;;7.00;99.90;;;;;;6249527;22;20049;-72
2022/09/30 03:08:32;;;;;;;;;;;6.90;99.90;;;;;;6249727;22;19955;-73
2022/09/30 03:10:57;;;;;;;;;;;6.90;99.90;;;;;;6249309;22;19915;-73
2022/09/30 03:13:26;;;;;;;;;;;6.90;99.90;;;;;;6274863;22;19916;-74
2022/09/30 03:16:01;;;;;;;;;;;6.90;99.90;;;;;;6249448;22;19954;-73
2022/09/30 03:18:46;;;;;;;;;;;6.90;99.90;;;;;;6249760;22;19916;-74
2022/09/30 03:21:24;;;;;;;;;;;6.90;99.90;;;;;;6274970;22;20229;-73
2022/09/30 03:24:04;;;;;;;;;;;6.90;99.90;;;;;;6274849;22;19920;-74
2022/09/30 03:26:30;;;;;;;;;;;6.80;99.90;;;;;;6275178;22;19923;-73
2022/09/30 03:29:01;;;;;;;;;;;6.80;99.90;;;;;;6274635;22;19919;-72
2022/09/30 03:31:33;;;;;;;;;;;6.80;99.90;;;;;;6248786;22;19916;-74
2022/09/30 03:34:01;;;;;;;;;;;6.80;99.90;;;;;;6274793;22;19922;-72
2022/09/30 03:36:37;;;;;;;;;;;6.70;99.90;;;;;;6274467;22;19922;-74
2022/09/30 03:39:02;;;;;;;;;;;6.70;99.90;;;;;;6249186;22;19922;-72
2022/09/30 03:41:50;;;;;;;;;;;6.70;99.90;;;;;;6275720;22;19994;-75
2022/09/30 03:44:27;;;;;;;;;;;6.60;99.90;;;;;;6276499;22;19997;-72
2022/09/30 03:47:02;;;;;;;;;;;6.70;99.90;;;;;;6276777;22;19955;-72
2022/09/30 03:49:34;;;;;;;;;;;6.60;99.90;;;;;;6251501;22;19922;-74
2022/09/30 03:52:04;;;;;;;;;;;6.60;99.90;;;;;;6276719;22;19915;-73
2022/09/30 03:54:30;;;;;;;;;;;6.60;99.90;;;;;;6276114;22;19921;-72
2022/09/30 03:56:55;;;;;;;;;;;6.60;99.90;;;;;;6250900;22;19915;-73
2022/09/30 03:59:21;;;;;;;;;;;6.50;99.90;;;;;;6276826;22;19927;-72
2022/09/30 04:01:47;;;;;;;;;;;6.40;99.90;;;;;;6276604;22;19915;-73
2022/09/30 04:04:12;;;;;;;;;;;6.80;99.90;;;;;;6276658;22;20329;-72
2022/09/30 04:06:38;;;;;;;;;;;6.60;99.90;;;;;;6251076;22;19915;-74
2022/09/30 04:09:04;;;;;;;;;;;6.60;99.90;;;;;;6276722;22;19982;-75
2022/09/30 04:11:29;;;;;;;;;;;6.60;99.90;;;;;;6250671;22;20230;-72
2022/09/30 04:13:55;;;;;;;;;;;6.70;99.90;;;;;;6250677;22;19919;-72
2022/09/30 04:16:20;;;;;;;;;;;6.50;99.90;;;;;;6251184;22;19919;-74
2022/09/30 04:18:46;;;;;;;;;;;6.50;99.90;;;;;;6276162;22;20326;-72
2022/09/30 04:21:13;;;;;;;;;;;6.50;99.90;;;;;;6250815;22;19915;-72
2022/09/30 04:23:39;;;;;;;;;;;6.50;99.90;;;;;;6275994;22;19911;-72
2022/09/30 04:26:06;;;;;;;;;;;6.60;99.90;;;;;;6276300;22;19980;-74
2022/09/30 04:28:32;;;;;;;;;;;6.40;99.90;;;;;;6276192;22;19956;-73
2022/09/30 04:30:58;;;;;;;;;;;6.70;99.90;;;;;;6250841;22;19915;-73
2022/09/30 04:33:24;;;;;;;;;;;6.40;99.90;;;;;;6276280;22;19919;-72
2022/09/30 04:35:54;;;;;;;;;;;6.40;99.90;;;;;;6276039;22;19976;-75
2022/09/30 04:38:20;;;;;;;;;;;6.40;99.90;;;;;;6276522;22;19965;-72
2022/09/30 04:40:45;;;;;;;;;;;6.40;99.90;;;;;;6250467;22;19915;-73
2022/09/30 04:43:11;;;;;;;;;;;6.40;99.90;;;;;;6250388;22;19924;-72
2022/09/30 04:45:37;;;;;;;;;;;6.70;99.90;;;;;;6250646;22;19926;-72
2022/09/30 04:48:03;;;;;;;;;;;6.40;99.90;;;;;;6250907;22;19948;-73
2022/09/30 04:50:30;;;;;;;;;;;6.40;99.90;;;;;;6276287;22;19991;-73
2022/09/30 04:52:56;;;;;;;;;;;6.40;99.90;;;;;;6275492;22;19942;-73
2022/09/30 04:55:22;;;;;;;;;;;6.60;99.90;;;;;;6250068;22;20318;-74
2022/09/30 04:57:48;;;;;;;;;;;6.50;99.90;;;;;;6276319;22;19922;-74
2022/09/30 05:00:13;;;;;;;;;;;6.40;99.90;;;;;;6275585;22;19915;-74
2022/09/30 05:02:41;;;;;;;;;;;6.50;99.90;;;;;;6250045;22;19963;-72
2022/09/30 05:05:07;;;;;;;;;;;6.40;99.90;;;;;;6276029;22;19975;-74
2022/09/30 05:07:33;;;;;;;;;;;6.40;99.90;;;;;;6277597;22;19915;-72
2022/09/30 05:09:58;;;;;;;;;;;6.40;99.90;;;;;;6250762;22;20252;-74
2022/09/30 05:12:25;;;;;;;;;;;6.40;99.90;;;;;;6275865;22;19937;-74
2022/09/30 05:14:50;;;;;;;;;;;6.30;99.90;;;;;;6250257;22;19968;-74
2022/09/30 05:17:16;;;;;;;;;;;6.50;99.90;;;;;;6275385;22;19915;-74
2022/09/30 05:19:41;;;;;;;;;;;6.30;99.90;;;;;;6275388;22;20306;-72
2022/09/30 05:22:07;;;;;;;;;;;6.30;99.90;;;;;;6275667;22;20322;-72
2022/09/30 05:24:33;;;;;;;;;;;6.30;99.90;;;;;;6249587;22;19911;-76
2022/09/30 05:26:58;;;;;;;;;;;6.20;99.90;;;;;;6249614;22;20237;-73
2022/09/30 05:29:24;;;;;;;;;;;6.20;99.90;;;;;;6275247;22;19994;-72
2022/09/30 05:31:49;;;;;;;;;;;6.20;99.90;;;;;;6249637;22;20041;-73
2022/09/30 05:34:34;;;;;;;;;;;6.30;99.90;;;;;;6275785;22;19922;-78
2022/09/30 05:37:03;;;;;;;;;;;6.30;99.90;;;;;;6250335;22;19922;-77
2022/09/30 05:39:47;;;;;;;;;;;6.30;99.90;;;;;;6275636;22;19922;-81
2022/09/30 05:42:35;;;;;;;;;;;6.30;99.90;;;;;;6250398;22;20310;-75
2022/09/30 05:45:40;;;;;;;;;;;6.40;99.90;;;;;;6250305;22;20306;-77
2022/09/30 05:48:06;;;;;;;;;;;6.40;99.90;;;;;;6234402;22;20314;-74
2022/09/30 05:50:52;;;;;;;;;;;7.10;99.90;;;;;;6250929;22;19957;-83
2022/09/30 05:57:13;;;;;;;;;;;;;;;;;;;;;
2022/09/30 06:03:02;;;;;;;;;;;6.40;99.90;;;;;;6211915;23;19939;-84
2022/09/30 06:11:25;;;;;;;;;;;6.40;99.90;;;;;;6268296;22;20148;-78
2022/09/30 06:17:52;;;;;;;;;;;6.40;99.90;;;;;;6212292;23;20317;-82
2022/09/30 06:29:29;;;;;;;;;;;6.50;99.90;;;;;;6302112;22;20321;-77
2022/09/30 06:31:54;;;;;;;;;;;6.60;99.90;;;;;;6252447;22;19915;-74
2022/09/30 06:34:20;;;;;;;;;;;6.70;99.90;;;;;;6278762;22;19915;-76
2022/09/30 06:36:46;;;;;;;;;;;6.80;99.90;;;;;;6253096;22;20268;-74
2022/09/30 06:39:29;;;;;;;;;;;7.00;99.90;;;;;;6253550;22;20321;-81
2022/09/30 06:49:23;;;;;;;;;;;7.30;99.90;;;;;;6221411;22;20327;-76
2022/09/30 07:02:33;;;;;;;;;;;8.20;99.90;;;;;;6151371;23;19981;-83
2022/09/30 07:04:58;;;;;;;;;;;8.40;99.90;;;;;;6101594;23;19963;-77
2022/09/30 07:07:39;;;;;;;;;;;8.80;99.90;;;;;;6127087;23;19913;-81
2022/09/30 07:10:05;;;;;;;;;;;8.90;99.90;;;;;;6103995;23;20323;-78
2022/09/30 07:13:11;;;;;;;;;;;8.90;99.90;;;;;;6146418;23;20262;-76
2022/09/30 09:32:52;;;;;;;;;;;15.30;99.90;;;;;;6332954;22;19914;-82
2022/09/30 09:35:44;;;;;;;;;;;15.40;99.90;;;;;;6254809;22;19919;-77
2022/09/30 09:41:47;;;;;;;;;;;15.70;99.90;;;;;;6231491;22;19922;-76
2022/09/30 09:44:48;;;;;;;;;;;15.70;99.90;;;;;;6280774;22;19914;-78
2022/09/30 09:47:26;;;;;;;;;;;15.80;99.90;;;;;;6334694;22;19919;-76
2022/09/30 09:50:03;;;;;;;;;;;15.90;99.90;;;;;;6282251;22;19949;-84
2022/09/30 09:55:04;;;;;;;;;;;16.00;99.90;;;;;;6292683;22;19920;-76
2022/09/30 09:57:43;;;;;;;;;;;16.10;99.90;;;;;;6224226;22;20002;-78
2022/09/30 10:04:03;;;;;;;;;;;;;;;;;;;;;
2022/09/30 10:06:53;;;;;;;;;;;16.30;99.90;;;;;;6097517;23;19921;-79
2022/09/30 10:09:24;;;;;;;;;;;16.20;99.90;;;;;;6143904;22;19994;-77
2022/09/30 10:12:08;;;;;;;;;;;16.20;99.90;;;;;;6221941;22;20345;-80
2022/09/30 10:14:35;;;;;;;;;;;16.20;99.90;;;;;;6223229;22;19921;-78
2022/09/30 10:17:25;;;;;;;;;;;;;;;;;;;;;
2022/09/30 10:20:32;;;;;;;;;;;16.30;99.90;;;;;;6244342;22;19915;-76
2022/09/30 10:23:08;;;;;;;;;;;16.40;99.90;;;;;;6217132;22;19915;-79
2022/09/30 10:25:34;;;;;;;;;;;16.50;99.90;;;;;;6223683;22;19919;-75
2022/09/30 10:28:01;;;;;;;;;;;16.50;99.90;;;;;;6223550;22;19911;-76
2022/09/30 10:30:32;;;;;;;;;;;16.40;99.90;;;;;;6248865;22;20262;-78
2022/09/30 10:33:03;;;;;;;;;;;16.40;99.90;;;;;;6222344;22;20225;-79
2022/09/30 10:35:29;;;;;;;;;;;16.30;99.90;;;;;;6223099;22;19986;-77
2022/09/30 10:37:59;;;;;;;;;;;16.40;99.90;;;;;;6248299;22;19960;-76
2022/09/30 10:40:29;;;;;;;;;;;16.50;99.90;;;;;;6249463;22;19911;-75
2022/09/30 10:42:55;;;;;;;;;;;16.70;99.90;;;;;;6222507;22;19915;-77
2022/09/30 10:45:30;;;;;;;;;;;16.80;99.90;;;;;;6222602;22;20003;-77
2022/09/30 10:47:57;;;;;;;;;;;16.90;99.90;;;;;;6223012;22;20229;-75
2022/09/30 10:50:56;;;;;;;;;;;17.00;99.90;;;;;;6248059;22;19915;-75
2022/09/30 10:53:26;;;;;;;;;;;16.90;99.90;;;;;;6223117;22;19911;-80
2022/09/30 10:55:53;;;;;;;;;;;16.90;99.90;;;;;;6282216;22;19938;-75
2022/09/30 10:58:20;;;;;;;;;;;17.00;99.90;;;;;;6252474;22;19915;-71
2022/09/30 11:00:48;;;;;;;;;;;16.90;99.90;;;;;;6278792;22;19946;-73
2022/09/30 11:03:17;;;;;;;;;;;16.90;99.90;;;;;;6277931;22;19960;-75
2022/09/30 11:05:44;;;;;;;;;;;16.70;99.90;;;;;;6278330;22;19990;-75
2022/09/30 11:08:22;;;;;;;;;;;16.40;99.90;;;;;;6278774;22;20280;-76
2022/09/30 11:11:09;;;;;;;;;;;16.50;99.90;;;;;;6279180;22;19976;-76
2022/09/30 12:19:23;;;;;;;;;;;16.90;99.90;;;;;;5981701;24;19998;-77
2022/09/30 12:22:50;;;;;;;;;;;16.80;99.90;;;;;;6043330;23;19965;-79
2022/09/30 12:25:49;;;;;;;;;;;16.80;99.90;;;;;;6059228;23;19917;-80
2022/09/30 12:35:14;;;;;;;;;;;16.80;99.90;;;;;;6037392;23;19949;-79
2022/09/30 12:37:39;;;;;;;;;;;16.70;99.90;;;;;;6012683;23;19914;-76
2022/09/30 12:40:19;;;;;;;;;;;16.60;99.90;;;;;;6205201;22;19910;-81
2022/09/30 12:46:17;;;;;;;;;;;16.50;99.90;;;;;;6280369;22;20231;-76
2022/09/30 12:49:03;;;;;;;;;;;16.50;99.90;;;;;;6280566;22;19946;-78
2022/09/30 12:51:32;;;;;;;;;;;16.50;99.90;;;;;;6254867;22;19946;-77
2022/09/30 12:54:02;;;;;;;;;;;16.50;99.90;;;;;;6254168;22;19945;-75
2022/09/30 12:56:29;;;;;;;;;;;16.50;99.90;;;;;;6255639;22;20232;-80
2022/09/30 12:59:08;;;;;;;;;;;16.50;99.90;;;;;;6255266;22;20227;-81
2022/09/30 13:02:03;;;;;;;;;;;16.50;99.90;;;;;;6282684;22;19918;-81
2022/09/30 13:05:22;;;;;;;;;;;16.50;99.90;;;;;;6248951;22;19990;-80
2022/09/30 13:08:11;;;;;;;;;;;16.50;99.90;;;;;;6255206;22;19917;-81
2022/09/30 13:11:11;;;;;;;;;;;16.50;99.90;;;;;;6261380;22;19911;-82
2022/09/30 13:13:58;;;;;;;;;;;16.50;99.90;;;;;;6221158;22;19910;-81
2022/09/30 13:16:51;;;;;;;;;;;16.40;99.90;;;;;;6254870;22;19911;-82
2022/09/30 13:19:39;;;;;;;;;;;16.40;99.90;;;;;;6283419;22;19937;-81
2022/09/30 13:22:35;;;;;;;;;;;16.30;99.90;;;;;;6268741;22;19945;-81
2022/09/30 13:25:39;;;;;;;;;;;16.30;99.90;;;;;;6255457;22;19998;-81
2022/09/30 13:28:18;;;;;;;;;;;16.20;99.90;;;;;;6233185;22;19957;-80
2022/09/30 13:31:12;;;;;;;;;;;16.20;99.90;;;;;;6254829;22;19954;-80
2022/09/30 13:33:43;;;;;;;;;;;16.20;99.90;;;;;;6254679;22;19942;-76
2022/09/30 13:42:46;;;;;;;;;;;;;;;;;;;;;
2022/09/30 13:45:47;;;;;;;;;;;16.20;99.90;;;;;;6157743;23;19918;-75
2022/09/30 14:10:36;;;;;;;;;;;16.00;99.90;;;;;;6183030;23;19912;-76
2022/09/30 14:20:32;;;;;;;;;;;;;;;;;;;;;
2022/09/30 14:40:56;;;;;;;;;;;15.80;99.90;;;;;;5870520;24;20232;-81
2022/09/30 14:47:06;;;;;;;;;;;;;;;;;;;;;
2022/09/30 14:53:34;;;;;;;;;;;15.60;99.90;;;;;;6155449;23;19996;-80
2022/09/30 14:59:36;;;;;;;;;;;15.70;99.90;;;;;;6086215;23;19921;-78
2022/09/30 15:02:22;;;;;;;;;;;15.70;99.90;;;;;;6071139;23;19914;-74
2022/09/30 15:04:51;;;;;;;;;;;15.70;99.90;;;;;;6071303;23;19917;-78
2022/09/30 15:07:58;;;;;;;;;;;;;;;;;;;;;
2022/09/30 15:24:44;;;;;;;;;;;15.80;99.90;;;;;;5971755;24;20215;-77
2022/09/30 15:27:35;;;;;;;;;;;15.60;99.90;;;;;;6043132;23;19991;-76
2022/09/30 15:30:18;;;;;;;;;;;15.50;99.90;;;;;;6046897;23;19920;-75
2022/09/30 15:32:47;;;;;;;;;;;15.40;99.90;;;;;;6070940;23;19913;-78
2022/09/30 15:35:19;;;;;;;;;;;15.40;99.90;;;;;;6090643;23;19912;-76
2022/09/30 15:37:45;;;;;;;;;;;15.40;99.90;;;;;;6159549;23;19912;-76
2022/09/30 15:43:05;;;;;;;;;;;15.30;99.90;;;;;;6159794;23;19919;-75
2022/09/30 15:45:34;;;;;;;;;;;15.30;99.90;;;;;;6135469;23;19916;-76
2022/09/30 15:48:01;;;;;;;;;;;15.30;99.90;;;;;;6171738;23;19912;-77
2022/09/30 15:50:36;;;;;;;;;;;15.30;99.90;;;;;;6220369;23;20215;-77
2022/09/30 15:53:03;;;;;;;;;;;15.30;99.90;;;;;;6282180;22;19922;-78
2022/09/30 15:55:34;;;;;;;;;;;15.30;99.90;;;;;;6257084;22;19915;-75
2022/09/30 15:58:04;;;;;;;;;;;15.20;99.90;;;;;;6251168;22;20347;-76
2022/09/30 16:00:34;;;;;;;;;;;15.10;99.90;;;;;;6226257;22;20286;-77
2022/09/30 16:03:12;;;;;;;;;;;15.10;99.90;;;;;;6278004;22;20345;-79
2022/09/30 16:05:38;;;;;;;;;;;15.00;99.90;;;;;;6225915;22;19915;-78
2022/09/30 16:08:06;;;;;;;;;;;14.90;99.90;;;;;;6251258;22;19993;-77
2022/09/30 16:10:32;;;;;;;;;;;14.90;99.90;;;;;;6225867;22;19922;-74
2022/09/30 16:12:57;;;;;;;;;;;14.80;99.90;;;;;;6250915;22;19912;-76
2022/09/30 16:15:24;;;;;;;;;;;14.70;99.90;;;;;;6251177;22;20269;-75
2022/09/30 16:17:49;;;;;;;;;;;14.60;99.90;;;;;;6251611;22;19919;-76
2022/09/30 16:20:16;;;;;;;;;;;14.50;99.90;;;;;;6251838;22;19958;-73
2022/09/30 16:22:41;;;;;;;;;;;14.50;99.90;;;;;;6225320;22;20340;-75
2022/09/30 16:25:19;;;;;;;;;;;14.40;99.90;;;;;;6250024;22;19915;-76
2022/09/30 16:27:45;;;;;;;;;;;14.40;99.90;;;;;;6224596;22;20314;-76
2022/09/30 16:30:27;;;;;;;;;;;14.40;99.90;;;;;;6250291;22;20000;-80
2022/09/30 16:33:05;;;;;;;;;;;14.30;99.90;;;;;;6226081;22;20508;-84
2022/09/30 16:39:27;;;;;;;;;;;14.20;99.90;;;;;;6156667;23;20412;-77
2022/09/30 16:42:31;;;;;;;;;;;14.10;99.90;;;;;;6157887;23;19916;-81
2022/09/30 16:51:41;;;;;;;;;;;14.00;99.90;;;;;;6008973;23;20390;-81
2022/09/30 16:57:43;;;;;;;;;;;13.90;99.90;;;;;;5963989;23;20289;-84
2022/09/30 17:00:17;;;;;;;;;;;13.80;99.90;;;;;;6122690;23;19913;-76
2022/09/30 17:02:44;;;;;;;;;;;13.70;99.90;;;;;;6215694;22;19911;-79
2022/09/30 17:05:20;;;;;;;;;;;13.60;99.90;;;;;;6223897;22;19950;-78
2022/09/30 17:07:46;;;;;;;;;;;13.60;99.90;;;;;;6248771;22;20269;-75
2022/09/30 17:10:17;;;;;;;;;;;13.50;99.90;;;;;;6249836;22;19942;-77
2022/09/30 17:12:45;;;;;;;;;;;13.50;99.90;;;;;;6249343;22;19911;-77
2022/09/30 17:15:11;;;;;;;;;;;13.40;99.90;;;;;;6223996;22;19911;-75
2022/09/30 17:17:36;;;;;;;;;;;13.30;99.90;;;;;;6249629;22;19958;-75
2022/09/30 17:20:02;;;;;;;;;;;13.30;99.90;;;;;;6249950;22;19919;-77
2022/09/30 17:22:28;;;;;;;;;;;13.20;99.90;;;;;;6249683;22;19916;-78
2022/09/30 17:25:01;;;;;;;;;;;13.20;99.90;;;;;;6250015;22;19911;-78
2022/09/30 17:27:27;;;;;;;;;;;13.20;99.90;;;;;;6225257;22;19922;-77
2022/09/30 17:37:01;;;;;;;;;;;13.00;99.90;;;;;;5983265;24;20255;-79
2022/09/30 17:39:26;;;;;;;;;;;13.00;99.90;;;;;;5958436;23;19948;-77
2022/09/30 17:44:37;;;;;;;;;;;12.90;99.90;;;;;;6250105;22;19911;-77
2022/09/30 17:47:40;;;;;;;;;;;12.90;99.90;;;;;;6249482;22;20233;-76
2022/09/30 17:50:08;;;;;;;;;;;12.80;99.90;;;;;;6249358;22;19919;-75
2022/09/30 17:56:03;;;;;;;;;;;12.90;99.90;;;;;;6205393;22;19919;-77
2022/09/30 17:58:29;;;;;;;;;;;12.90;99.90;;;;;;6223910;22;19923;-75
2022/09/30 18:00:58;;;;;;;;;;;12.90;99.90;;;;;;6224164;22;20226;-77
2022/09/30 18:03:26;;;;;;;;;;;12.90;99.90;;;;;;6248793;22;19985;-75
2022/09/30 18:05:58;;;;;;;;;;;12.80;99.90;;;;;;6223953;22;19919;-77
2022/09/30 18:08:40;;;;;;;;;;;12.80;99.90;;;;;;6223542;22;19915;-75
2022/09/30 18:11:45;;;;;;;;;;;12.80;99.90;;;;;;6226262;22;19915;-76
2022/09/30 18:14:11;;;;;;;;;;;12.90;99.90;;;;;;6223344;22;20210;-78
2022/09/30 18:16:57;;;;;;;;;;;13.00;99.90;;;;;;6248883;22;19922;-79
2022/09/30 18:19:29;;;;;;;;;;;13.00;99.90;;;;;;6210674;22;19950;-78
2022/09/30 18:22:00;;;;;;;;;;;13.00;99.90;;;;;;6199638;22;19911;-79
2022/09/30 18:27:20;;;;;;;;;;;13.10;99.90;;;;;;6249286;22;19915;-80
2022/09/30 18:29:55;;;;;;;;;;;13.20;99.90;;;;;;6226107;22;20202;-76
2022/09/30 18:32:21;;;;;;;;;;;13.20;99.90;;;;;;6223940;22;19969;-77
2022/09/30 18:34:46;;;;;;;;;;;13.20;99.90;;;;;;6223897;22;19946;-76
2022/09/30 18:40:27;;;;;;;;;;;13.20;99.90;;;;;;6271081;22;19934;-71
2022/09/30 18:42:57;;;;;;;;;;;13.20;99.90;;;;;;6276100;22;19973;-77
2022/09/30 18:45:25;;;;;;;;;;;13.10;99.90;;;;;;6222953;22;19919;-77
2022/09/30 18:47:55;;;;;;;;;;;13.20;99.90;;;;;;6222802;22;19926;-75
2022/09/30 18:50:46;;;;;;;;;;;13.10;99.90;;;;;;6248391;22;19968;-80
2022/09/30 18:53:33;;;;;;;;;;;13.10;99.90;;;;;;6216822;22;19915;-77
2022/09/30 18:56:00;;;;;;;;;;;13.10;99.90;;;;;;6215072;23;19916;-75
2022/09/30 18:58:26;;;;;;;;;;;13.20;99.90;;;;;;6246070;22;20009;-76
2022/09/30 19:00:52;;;;;;;;;;;13.10;99.90;;;;;;6222713;22;19985;-75
2022/09/30 19:03:21;;;;;;;;;;;13.10;99.90;;;;;;6248173;22;19946;-76
2022/09/30 19:05:46;;;;;;;;;;;13.00;99.90;;;;;;6222762;22;19919;-72
2022/09/30 19:08:12;;;;;;;;;;;13.10;99.90;;;;;;6223631;22;19915;-77
2022/09/30 19:10:41;;;;;;;;;;;13.10;99.90;;;;;;6225664;22;19957;-78
2022/09/30 19:13:15;;;;;;;;;;;13.10;99.90;;;;;;6226148;22;19919;-80
2022/09/30 19:15:44;;;;;;;;;;;13.10;99.90;;;;;;6224690;22;19918;-77
2022/09/30 19:18:13;;;;;;;;;;;13.10;99.90;;;;;;6224442;22;19911;-78
2022/09/30 19:20:39;;;;;;;;;;;13.00;99.90;;;;;;6224711;22;19911;-77
2022/09/30 19:23:09;;;;;;;;;;;13.10;99.90;;;;;;6225001;22;19911;-75
2022/09/30 19:26:16;;;;;;;;;;;13.10;99.90;;;;;;6225081;22;20005;-77
2022/09/30 19:28:42;;;;;;;;;;;13.10;99.90;;;;;;6224214;22;20300;-77
2022/09/30 19:31:12;;;;;;;;;;;13.20;99.90;;;;;;6225155;22;19915;-76
2022/09/30 19:33:38;;;;;;;;;;;13.10;99.90;;;;;;6250561;22;20340;-79
2022/09/30 19:36:08;;;;;;;;;;;13.20;99.90;;;;;;6226043;22;19911;-76
2022/09/30 19:38:36;;;;;;;;;;;13.10;99.90;;;;;;6225971;22;19912;-74
2022/09/30 19:41:08;;;;;;;;;;;13.20;99.90;;;;;;6201131;22;19923;-75
2022/09/30 19:43:34;;;;;;;;;;;13.20;99.90;;;;;;6226810;22;19937;-79
2022/09/30 19:46:04;;;;;;;;;;;13.10;99.90;;;;;;6241708;22;19913;-74
2022/09/30 19:48:36;;;;;;;;;;;13.20;99.90;;;;;;6276121;22;19903;-78
2022/09/30 19:51:03;;;;;;;;;;;13.10;99.90;;;;;;6252284;22;19966;-76
2022/09/30 19:53:30;;;;;;;;;;;13.10;99.90;;;;;;6251738;22;19906;-79
2022/09/30 19:56:13;;;;;;;;;;;13.20;99.90;;;;;;6223682;23;19987;-79
2022/09/30 19:59:26;;;;;;;;;;;13.10;99.90;;;;;;6244881;23;19911;-80
2022/09/30 20:02:19;;;;;;;;;;;13.20;99.90;;;;;;6220647;23;20280;-77
2022/09/30 20:08:58;;;;;;;;;;;13.20;99.90;;;;;;6182821;23;19910;-77
2022/09/30 20:11:25;;;;;;;;;;;13.30;99.90;;;;;;6240393;23;19918;-74
2022/09/30 20:20:33;;;;;;;;;;;13.10;99.90;;;;;;6244172;23;19922;-74
2022/09/30 20:22:31;;;;;;;;;;;13.20;99.90;;;;;;6244566;23;19915;-73
2022/09/30 20:24:56;;;;;;;;;;;13.20;99.90;;;;;;6220491;23;20033;-75
2022/09/30 20:34:20;;;;;;;;;;;13.10;99.90;;;;;;6129801;23;19963;-75
2022/09/30 20:36:46;;;;;;;;;;;13.20;99.90;;;;;;6204644;23;19911;-76
2022/09/30 20:39:12;;;;;;;;;;;13.10;99.90;;;;;;6220259;23;19916;-76
2022/09/30 20:41:38;;;;;;;;;;;13.20;99.90;;;;;;6220425;23;19987;-78
2022/09/30 20:44:10;;;;;;;;;;;13.10;99.90;;;;;;6220364;23;20357;-76
2022/09/30 20:46:36;;;;;;;;;;;13.20;99.90;;;;;;6220078;23;19911;-77
2022/09/30 20:49:02;;;;;;;;;;;13.10;99.90;;;;;;6220751;23;19962;-75
2022/09/30 20:51:28;;;;;;;;;;;13.20;99.90;;;;;;6220973;23;20311;-75
2022/09/30 20:53:55;;;;;;;;;;;13.10;99.90;;;;;;6245482;22;19912;-75
2022/09/30 20:56:21;;;;;;;;;;;13.20;99.90;;;;;;6245504;23;20207;-73
2022/09/30 21:02:49;;;;;;;;;;;13.20;99.90;;;;;;6095562;23;19921;-76
2022/09/30 21:05:14;;;;;;;;;;;13.20;99.90;;;;;;6071297;23;20000;-74
2022/09/30 21:07:40;;;;;;;;;;;13.20;99.90;;;;;;6162861;23;20383;-73
2022/09/30 21:10:06;;;;;;;;;;;13.20;99.90;;;;;;6220736;23;19995;-75
2022/09/30 21:49:33;;;;;;;;;;;12.30;99.90;;;;;;6237037;22;19919;-78
2022/09/30 21:51:59;;;;;;;;;;;12.30;99.90;;;;;;6220627;23;19922;-75
2022/09/30 21:54:27;;;;;;;;;;;12.30;99.90;;;;;;6215576;23;19912;-76
2022/09/30 21:56:53;;;;;;;;;;;12.30;99.90;;;;;;6189960;23;19912;-76
2022/09/30 21:59:18;;;;;;;;;;;12.20;99.90;;;;;;6190016;23;20276;-75
2022/09/30 22:01:45;;;;;;;;;;;12.10;99.90;;;;;;6215044;23;20230;-74
2022/09/30 22:04:10;;;;;;;;;;;12.10;99.90;;;;;;6190659;23;19911;-74
2022/09/30 22:06:36;;;;;;;;;;;12.00;99.90;;;;;;6215395;23;20251;-74
2022/09/30 22:09:02;;;;;;;;;;;12.00;99.90;;;;;;6215365;23;19923;-74
2022/09/30 22:11:28;;;;;;;;;;;12.00;99.90;;;;;;6190059;23;19947;-76
2022/09/30 22:13:54;;;;;;;;;;;11.90;99.90;;;;;;6214757;23;19912;-76
2022/09/30 22:16:28;;;;;;;;;;;11.90;99.90;;;;;;6215317;23;19912;-76
2022/09/30 22:19:03;;;;;;;;;;;11.80;99.90;;;;;;6190489;23;19912;-77